Time;durP1;ratioP1;P1;durP2;ratioP2;P2;SDS_P1;SDS_P2;PMS_P1;PMS_P2;Temp;Humidity;BMP_temperature;BMP_pressure;BME280_temperature;BME280_humidity;BME280_pressure;Samples;Min_cycle;Max_cycle;Signal;HPM_P1;HPM_P2
2023/07/18 00:01:03;;;;;;;;;;;;;;;11.34;44.95;96138.81;5008379;28;19970;-78
2023/07/18 00:03:28;;;;;;;;;;;;;;;11.51;45.62;96152.94;5019997;28;19971;-78
2023/07/18 00:05:54;;;;;;;;;;;;;;;11.62;45.17;96149.06;5007991;28;20050;-78
2023/07/18 00:08:19;;;;;;;;;;;;;;;11.67;44.26;96147.72;5006135;28;19977;-78
2023/07/18 00:10:45;;;;;;;;;;;;;;;11.68;45.18;96152.88;5009505;28;19946;-78
2023/07/18 00:13:10;;;;;;;;;;;;;;;11.68;45.26;96146.72;5006214;28;19962;-77
2023/07/18 00:15:35;;;;;;;;;;;;;;;11.62;44.99;96143.72;5005669;28;19944;-77
2023/07/18 00:18:01;;;;;;;;;;;;;;;11.59;45.68;96146.75;5003283;28;20756;-78
2023/07/18 00:20:27;;;;;;;;;;;;;;;11.55;44.89;96150.75;5003283;28;19926;-78
2023/07/18 00:22:52;;;;;;;;;;;;;;;11.46;45.62;96143.78;5004800;28;19918;-76
2023/07/18 00:25:19;;;;;;;;;;;;;;;11.41;46.18;96151.44;5003987;28;19956;-76
2023/07/18 00:27:44;;;;;;;;;;;;;;;11.34;45.83;96156.63;5014272;28;19925;-76
2023/07/18 00:30:12;;;;;;;;;;;;;;;11.27;45.03;96153.81;5009058;28;20460;-77
2023/07/18 00:32:37;;;;;;;;;;;;;;;11.18;45.88;96158.31;5000988;28;20020;-77
2023/07/18 00:35:04;;;;;;;;;;;;;;;11.13;45.38;96155.34;4998129;28;20004;-77
2023/07/18 00:37:29;;;;;;;;;;;;;;;11.05;45.83;96156.13;5002926;28;19928;-77
2023/07/18 00:39:54;;;;;;;;;;;;;;;10.99;46.94;96152.31;5003901;28;19960;-78
2023/07/18 00:42:20;;;;;;;;;;;;;;;10.94;46.45;96144.00;5003083;28;19922;-78
2023/07/18 00:44:48;;;;;;;;;;;;;;;10.89;47.19;96146.34;5005603;28;19957;-76
2023/07/18 00:47:13;;;;;;;;;;;;;;;10.89;47.42;96146.34;5003193;28;19922;-78
2023/07/18 00:49:38;;;;;;;;;;;;;;;10.83;46.51;96142.50;5005627;28;19944;-77
2023/07/18 00:52:04;;;;;;;;;;;;;;;10.71;45.43;96135.84;5016376;28;19951;-78
2023/07/18 00:54:29;;;;;;;;;;;;;;;10.59;45.76;96141.50;5005439;28;19917;-78
2023/07/18 00:56:55;;;;;;;;;;;;;;;10.52;47.26;96144.97;5005504;28;19918;-78
2023/07/18 00:59:20;;;;;;;;;;;;;;;10.49;47.21;96138.16;5013076;28;20003;-77
2023/07/18 01:01:46;;;;;;;;;;;;;;;10.49;47.26;96141.66;5015819;28;19924;-76
2023/07/18 01:04:11;;;;;;;;;;;;;;;10.48;48.63;96139.97;5012131;28;19921;-77
2023/07/18 01:06:36;;;;;;;;;;;;;;;10.45;47.67;96139.50;5009681;28;19924;-76
2023/07/18 01:09:02;;;;;;;;;;;;;;;10.39;48.08;96137.47;5013713;28;20460;-77
2023/07/18 01:11:27;;;;;;;;;;;;;;;10.27;46.39;96136.97;5010579;28;20674;-78
2023/07/18 01:13:52;;;;;;;;;;;;;;;10.18;48.58;96131.63;5000365;28;19925;-77
2023/07/18 01:16:18;;;;;;;;;;;;;;;10.16;47.60;96130.13;4981421;28;19964;-77
2023/07/18 01:18:43;;;;;;;;;;;;;;;10.08;49.25;96126.44;5004951;28;19976;-77
2023/07/18 01:21:09;;;;;;;;;;;;;;;10.07;47.93;96123.94;5011544;28;19921;-76
2023/07/18 01:23:34;;;;;;;;;;;;;;;10.01;48.60;96125.41;5001764;28;19972;-78
2023/07/18 01:26:00;;;;;;;;;;;;;;;9.95;48.59;96129.53;5001272;28;19961;-76
2023/07/18 01:28:25;;;;;;;;;;;;;;;9.93;48.73;96136.03;5000758;28;20298;-76
2023/07/18 01:30:50;;;;;;;;;;;;;;;9.90;48.92;96131.84;5003573;28;19925;-75
2023/07/18 01:33:15;;;;;;;;;;;;;;;9.88;49.05;96125.00;5008343;28;19925;-77
2023/07/18 01:35:41;;;;;;;;;;;;;;;9.85;49.34;96112.88;5006294;28;19917;-76
2023/07/18 01:38:06;;;;;;;;;;;;;;;9.84;48.04;96116.53;5006303;28;19922;-75
2023/07/18 01:40:31;;;;;;;;;;;;;;;9.81;49.75;96114.19;5003661;28;20028;-78
2023/07/18 01:42:57;;;;;;;;;;;;;;;9.79;50.00;96111.69;5013174;28;19913;-77
2023/07/18 01:45:22;;;;;;;;;;;;;;;9.79;48.43;96105.56;5016752;28;20012;-78
2023/07/18 01:47:48;;;;;;;;;;;;;;;9.78;48.75;96099.41;5017677;28;19924;-77
2023/07/18 01:50:13;;;;;;;;;;;;;;;9.80;49.44;96099.25;5007504;28;19953;-77
2023/07/18 01:52:39;;;;;;;;;;;;;;;9.72;47.98;96103.53;5010857;28;19955;-76
2023/07/18 01:55:05;;;;;;;;;;;;;;;9.53;46.65;96104.63;5009353;28;20518;-77
2023/07/18 01:57:36;;;;;;;;;;;;;;;9.39;47.51;96099.91;5006724;28;19979;-76
2023/07/18 02:00:02;;;;;;;;;;;;;;;9.28;46.61;96091.19;5010443;28;19935;-75
2023/07/18 02:02:27;;;;;;;;;;;;;;;9.27;48.14;96101.97;5003547;28;19921;-78
2023/07/18 02:04:52;;;;;;;;;;;;;;;9.27;48.54;96097.50;5009171;28;19925;-77
2023/07/18 02:07:18;;;;;;;;;;;;;;;9.26;48.82;96093.19;5009891;28;20347;-76
2023/07/18 02:09:43;;;;;;;;;;;;;;;9.21;48.56;96098.13;5009197;28;19980;-77
2023/07/18 02:12:08;;;;;;;;;;;;;;;9.19;47.03;96092.16;4997948;28;19928;-75
2023/07/18 02:14:36;;;;;;;;;;;;;;;9.12;47.71;96097.28;5015811;28;19921;-77
2023/07/18 02:17:01;;;;;;;;;;;;;;;9.06;47.49;96100.53;4991929;28;19925;-77
2023/07/18 02:19:27;;;;;;;;;;;;;;;8.93;46.43;96092.97;5009180;28;19926;-78
2023/07/18 02:21:52;;;;;;;;;;;;;;;8.90;50.30;96106.53;5006661;28;19921;-77
2023/07/18 02:24:17;;;;;;;;;;;;;;;8.79;48.82;96102.31;5007180;28;19921;-78
2023/07/18 02:26:43;;;;;;;;;;;;;;;8.80;50.42;96099.50;5007382;28;19987;-78
2023/07/18 02:29:08;;;;;;;;;;;;;;;8.82;49.83;96086.94;5015027;28;19921;-77
2023/07/18 02:31:33;;;;;;;;;;;;;;;8.90;51.75;96094.09;5013026;28;20024;-77
2023/07/18 02:33:58;;;;;;;;;;;;;;;8.95;51.90;96088.38;5003205;28;19964;-78
2023/07/18 02:36:24;;;;;;;;;;;;;;;8.99;50.41;96087.06;5006195;28;20045;-77
2023/07/18 02:38:49;;;;;;;;;;;;;;;8.94;47.34;96095.47;5014576;28;19932;-77
2023/07/18 02:41:14;;;;;;;;;;;;;;;8.73;46.95;96097.63;5009974;28;20002;-76
2023/07/18 02:43:39;;;;;;;;;;;;;;;8.37;46.31;96095.84;5004983;28;19929;-78
2023/07/18 02:46:05;;;;;;;;;;;;;;;8.43;51.73;96100.53;4991871;28;19965;-78
2023/07/18 02:48:30;;;;;;;;;;;;;;;8.53;50.55;96103.09;5011212;28;20513;-76
2023/07/18 02:50:55;;;;;;;;;;;;;;;8.59;50.44;96101.66;5003118;28;20322;-78
2023/07/18 02:53:20;;;;;;;;;;;;;;;8.53;48.01;96098.63;5008631;28;19929;-77
2023/07/18 02:55:49;;;;;;;;;;;;;;;8.54;48.72;96094.19;5001410;28;20041;-77
2023/07/18 02:58:14;;;;;;;;;;;;;;;8.55;49.99;96096.69;5005974;28;20621;-77
2023/07/18 03:00:39;;;;;;;;;;;;;;;8.57;49.19;96088.56;5006221;28;19929;-77
2023/07/18 03:03:04;;;;;;;;;;;;;;;8.57;50.57;96099.19;5001435;28;19913;-78
2023/07/18 03:05:33;;;;;;;;;;;;;;;8.65;49.42;96095.75;5001807;28;19972;-77
2023/07/18 03:07:58;;;;;;;;;;;;;;;8.64;50.05;96099.41;5013082;28;19928;-78
2023/07/18 03:10:24;;;;;;;;;;;;;;;8.67;50.50;96099.09;5011462;28;19922;-76
2023/07/18 03:12:49;;;;;;;;;;;;;;;8.66;50.51;96100.06;5016931;28;20574;-77
2023/07/18 03:15:16;;;;;;;;;;;;;;;8.65;50.57;96107.22;5006119;28;19961;-77
2023/07/18 03:17:41;;;;;;;;;;;;;;;8.55;48.18;96096.69;5011586;28;19964;-77
2023/07/18 03:20:17;;;;;;;;;;;;;;;8.52;50.90;96099.63;5011407;28;19964;-76
2023/07/18 03:22:45;;;;;;;;;;;;;;;8.53;50.64;96095.16;5015626;28;20550;-77
2023/07/18 03:25:11;;;;;;;;;;;;;;;8.52;51.29;96099.63;5011677;28;20400;-76
2023/07/18 03:27:36;;;;;;;;;;;;;;;8.49;49.20;96107.06;5013591;28;19924;-75
2023/07/18 03:30:02;;;;;;;;;;;;;;;8.40;49.32;96104.34;5019218;28;19991;-77
2023/07/18 03:32:27;;;;;;;;;;;;;;;8.44;50.72;96102.22;5020375;28;20429;-76
2023/07/18 03:34:52;;;;;;;;;;;;;;;8.52;50.35;96099.63;5005064;28;20426;-76
2023/07/18 03:37:17;;;;;;;;;;;;;;;8.50;50.81;96098.94;5010643;28;20016;-76
2023/07/18 03:39:43;;;;;;;;;;;;;;;8.56;51.76;96103.66;5013744;28;19955;-77
2023/07/18 03:42:08;;;;;;;;;;;;;;;8.65;51.47;96098.41;5009613;28;20171;-77
2023/07/18 03:44:33;;;;;;;;;;;;;;;8.74;51.22;96102.78;5015751;28;20374;-76
2023/07/18 03:46:58;;;;;;;;;;;;;;;8.77;50.37;96099.00;5011181;28;19948;-77
2023/07/18 03:49:24;;;;;;;;;;;;;;;8.81;50.04;96093.22;5012124;28;19921;-77
2023/07/18 03:51:49;;;;;;;;;;;;;;;8.87;51.35;96090.94;4986492;28;19964;-77
2023/07/18 03:54:14;;;;;;;;;;;;;;;8.93;51.14;96085.84;4997748;28;19928;-75
2023/07/18 03:56:39;;;;;;;;;;;;;;;8.98;50.87;96085.41;5010090;28;19925;-76
2023/07/18 03:59:05;;;;;;;;;;;;;;;9.02;50.30;96086.75;5006550;28;20012;-77
2023/07/18 04:01:30;;;;;;;;;;;;;;;9.06;48.73;96087.25;5003273;28;19964;-75
2023/07/18 04:03:55;;;;;;;;;;;;;;;9.06;49.44;96082.78;5021034;28;19928;-76
2023/07/18 04:06:21;;;;;;;;;;;;;;;9.12;49.96;96085.81;5007347;28;19932;-76
2023/07/18 04:08:46;;;;;;;;;;;;;;;9.20;49.22;96088.50;5008920;28;20169;-77
2023/07/18 04:11:11;;;;;;;;;;;;;;;9.25;48.68;96094.16;5009959;28;19924;-77
2023/07/18 04:13:37;;;;;;;;;;;;;;;9.28;49.18;96096.50;5019250;28;19917;-77
2023/07/18 04:16:03;;;;;;;;;;;;;;;9.37;49.24;96088.59;5019147;28;19962;-77
2023/07/18 04:18:28;;;;;;;;;;;;;;;9.43;49.41;96087.97;5014003;28;19959;-77
2023/07/18 04:21:03;;;;;;;;;;;;;;;9.52;48.91;96084.34;5002862;28;19982;-76
2023/07/18 04:23:28;;;;;;;;;;;;;;;9.61;49.15;96082.53;4997855;28;19934;-78
2023/07/18 04:26:00;;;;;;;;;;;;;;;9.68;48.13;96075.59;5021744;28;19955;-75
2023/07/18 04:28:33;;;;;;;;;;;;;;;9.73;48.66;96072.47;4998442;28;19930;-76
2023/07/18 04:30:59;;;;;;;;;;;;;;;9.83;48.59;96073.13;5015185;28;19927;-78
2023/07/18 04:33:24;;;;;;;;;;;;;;;9.81;45.39;96079.63;5002430;28;20633;-78
2023/07/18 04:35:49;;;;;;;;;;;;;;;9.87;47.23;96080.81;4998948;28;20411;-77
2023/07/18 04:38:15;;;;;;;;;;;;;;;10.01;47.78;96088.16;5004953;28;19965;-77
2023/07/18 04:40:40;;;;;;;;;;;;;;;10.15;48.04;96083.22;5002731;28;20006;-77
2023/07/18 04:43:06;;;;;;;;;;;;;;;10.20;46.12;96083.56;5002309;28;20010;-76
2023/07/18 04:45:31;;;;;;;;;;;;;;;10.19;46.97;96087.22;5001844;28;19961;-76
2023/07/18 04:47:56;;;;;;;;;;;;;;;10.25;47.91;96091.03;5018844;28;20601;-77
2023/07/18 04:50:22;;;;;;;;;;;;;;;10.38;47.65;96088.75;5013820;28;20024;-77
2023/07/18 04:52:47;;;;;;;;;;;;;;;10.64;47.17;96086.94;5016253;28;20319;-77
2023/07/18 04:55:12;;;;;;;;;;;;;;;10.82;46.50;96087.59;5017927;28;19971;-78
2023/07/18 04:57:37;;;;;;;;;;;;;;;10.99;46.12;96088.38;5014884;28;19957;-77
2023/07/18 05:00:05;;;;;;;;;;;;;;;11.17;45.75;96083.88;5011222;28;19999;-78
2023/07/18 05:02:30;;;;;;;;;;;;;;;11.34;45.33;96082.84;5014922;28;19956;-76
2023/07/18 05:04:56;;;;;;;;;;;;;;;11.51;44.85;96085.44;5010367;28;20480;-78
2023/07/18 05:07:21;;;;;;;;;;;;;;;11.65;44.66;96091.88;5006212;28;19963;-77
2023/07/18 05:09:47;;;;;;;;;;;;;;;11.77;44.26;96092.34;5016289;28;20715;-78
2023/07/18 05:12:12;;;;;;;;;;;;;;;11.86;44.33;96082.44;5013758;28;19958;-76
2023/07/18 05:14:37;;;;;;;;;;;;;;;12.00;44.16;96084.38;5010998;28;19999;-77
2023/07/18 05:17:03;;;;;;;;;;;;;;;12.17;43.46;96088.81;5010912;28;19955;-77
2023/07/18 05:19:28;;;;;;;;;;;;;;;12.31;43.49;96082.72;5002968;28;19953;-78
2023/07/18 05:21:53;;;;;;;;;;;;;;;12.50;43.48;96077.91;5010074;28;20046;-78
2023/07/18 05:24:19;;;;;;;;;;;;;;;12.66;42.79;96084.97;5002698;28;20084;-78
2023/07/18 05:26:44;;;;;;;;;;;;;;;12.83;42.60;96087.47;4999496;28;19952;-77
2023/07/18 05:29:09;;;;;;;;;;;;;;;13.00;42.00;96085.53;5000452;28;19987;-77
2023/07/18 05:31:34;;;;;;;;;;;;;;;13.18;42.07;96088.69;5020663;28;20119;-76
2023/07/18 05:34:00;;;;;;;;;;;;;;;13.36;42.26;96090.16;5007910;28;19917;-78
2023/07/18 05:36:25;;;;;;;;;;;;;;;13.54;42.36;96084.44;5004527;28;20010;-77
2023/07/18 05:38:50;;;;;;;;;;;;;;;13.69;41.57;96087.09;5017186;28;19997;-78
2023/07/18 05:41:16;;;;;;;;;;;;;;;13.93;40.35;96085.16;5006034;28;19976;-78
2023/07/18 05:43:41;;;;;;;;;;;;;;;14.06;41.05;96081.81;5013539;28;19967;-78
2023/07/18 05:46:06;;;;;;;;;;;;;;;14.45;41.18;96090.44;5010568;28;20389;-77
2023/07/18 05:48:31;;;;;;;;;;;;;;;14.32;40.02;96083.09;5012666;28;20494;-77
2023/07/18 05:50:57;;;;;;;;;;;;;;;14.40;40.94;96087.50;5018506;28;19953;-78
2023/07/18 05:53:22;;;;;;;;;;;;;;;14.51;39.55;96085.34;5004581;28;19972;-78
2023/07/18 05:55:48;;;;;;;;;;;;;;;14.80;40.53;96086.25;5004789;28;19921;-78
2023/07/18 05:58:13;;;;;;;;;;;;;;;14.95;39.84;96086.97;5001427;28;19949;-77
2023/07/18 06:00:38;;;;;;;;;;;;;;;15.08;39.07;96083.56;5001369;28;19933;-78
2023/07/18 06:03:04;;;;;;;;;;;;;;;15.27;39.33;96086.59;5006690;28;19952;-78
2023/07/18 06:05:29;;;;;;;;;;;;;;;15.26;39.04;96084.09;5003743;28;20198;-77
2023/07/18 06:07:54;;;;;;;;;;;;;;;15.24;39.12;96079.75;5014073;28;20020;-77
2023/07/18 06:10:19;;;;;;;;;;;;;;;15.66;38.98;96078.13;5002271;28;20405;-77
2023/07/18 06:12:45;;;;;;;;;;;;;;;15.53;38.07;96074.34;5027935;28;19979;-78
2023/07/18 06:15:10;;;;;;;;;;;;;;;15.85;38.68;96074.72;5006780;28;20004;-76
2023/07/18 06:17:35;;;;;;;;;;;;;;;15.90;37.27;96073.31;5013607;28;19979;-77
2023/07/18 06:20:02;;;;;;;;;;;;;;;16.12;36.75;96074.00;5011108;28;19970;-78
2023/07/18 06:22:27;;;;;;;;;;;;;;;16.18;37.32;96070.47;5008310;28;19971;-77
2023/07/18 06:24:53;;;;;;;;;;;;;;;15.82;38.23;96066.25;5006541;28;20522;-77
2023/07/18 06:27:18;;;;;;;;;;;;;;;16.09;36.79;96061.81;5005414;28;19924;-78
2023/07/18 06:29:44;;;;;;;;;;;;;;;16.43;37.74;96058.38;5008398;28;19992;-79
2023/07/18 06:32:10;;;;;;;;;;;;;;;16.41;37.74;96069.31;5001069;28;19921;-77
2023/07/18 06:34:40;;;;;;;;;;;;;;;16.72;37.35;96059.00;5004822;28;20405;-77
2023/07/18 06:37:08;;;;;;;;;;;;;;;16.63;37.39;96067.25;5009469;28;19956;-78
2023/07/18 06:39:33;;;;;;;;;;;;;;;16.55;37.12;96056.72;5002007;28;20488;-78
2023/07/18 06:41:59;;;;;;;;;;;;;;;16.68;36.20;96058.59;5008771;28;19917;-79
2023/07/18 06:44:24;;;;;;;;;;;;;;;16.92;36.09;96061.69;5008927;28;20444;-79
2023/07/18 06:46:50;;;;;;;;;;;;;;;16.95;36.28;96068.50;5004682;28;20042;-78
2023/07/18 06:49:18;;;;;;;;;;;;;;;17.08;35.55;96060.44;5004257;28;20412;-78
2023/07/18 06:51:43;;;;;;;;;;;;;;;16.97;35.64;96061.06;5002211;28;19971;-79
2023/07/18 06:54:08;;;;;;;;;;;;;;;16.96;35.50;96054.84;4996577;28;20020;-78
2023/07/18 06:56:33;;;;;;;;;;;;;;;17.40;34.98;96049.00;4999388;28;20934;-79
2023/07/18 06:59:00;;;;;;;;;;;;;;;17.59;34.76;96046.47;5002077;28;19917;-79
2023/07/18 07:01:25;;;;;;;;;;;;;;;17.20;34.81;96049.09;5008009;28;19933;-76
2023/07/18 07:03:51;;;;;;;;;;;;;;;17.71;34.55;96050.16;5008737;28;19967;-78
2023/07/18 07:06:18;;;;;;;;;;;;;;;17.63;33.80;96047.69;5006409;28;19952;-77
2023/07/18 07:08:43;;;;;;;;;;;;;;;17.85;33.31;96044.72;5004911;28;20392;-78
2023/07/18 07:11:09;;;;;;;;;;;;;;;16.67;36.04;96048.88;5001448;28;19917;-78
2023/07/18 07:13:35;;;;;;;;;;;;;;;16.84;35.99;96049.28;5009385;28;19996;-78
2023/07/18 07:16:00;;;;;;;;;;;;;;;17.38;35.38;96048.41;5004145;28;19921;-76
2023/07/18 07:18:26;;;;;;;;;;;;;;;17.67;34.11;96054.31;5005041;28;19922;-78
2023/07/18 07:20:51;;;;;;;;;;;;;;;18.20;34.10;96044.34;5003562;28;19988;-78
2023/07/18 07:23:16;;;;;;;;;;;;;;;18.46;32.88;96039.81;5000806;28;19918;-70
2023/07/18 07:25:42;;;;;;;;;;;;;;;18.09;33.64;96042.34;4995599;28;19929;-70
2023/07/18 07:28:08;;;;;;;;;;;;;;;18.09;33.08;96039.66;5000262;28;19951;-70
2023/07/18 07:30:33;;;;;;;;;;;;;;;18.24;33.12;96037.50;4998947;28;19925;-70
2023/07/18 07:32:58;;;;;;;;;;;;;;;18.24;33.42;96032.09;5003672;28;19922;-70
2023/07/18 07:35:23;;;;;;;;;;;;;;;17.94;33.85;96038.06;5000602;28;19963;-71
2023/07/18 07:37:50;;;;;;;;;;;;;;;17.52;33.59;96039.25;5000567;28;19929;-70
2023/07/18 07:40:15;;;;;;;;;;;;;;;18.46;33.23;96031.72;4999308;28;20485;-70
2023/07/18 07:42:42;;;;;;;;;;;;;;;19.14;32.11;96029.31;5000921;28;19936;-70
2023/07/18 07:45:07;;;;;;;;;;;;;;;18.58;32.29;96037.28;5006939;28;19939;-70
2023/07/18 07:47:33;;;;;;;;;;;;;;;18.89;31.83;96027.47;5001517;28;19922;-70
2023/07/18 07:49:58;;;;;;;;;;;;;;;19.31;31.77;96031.47;5003315;28;19936;-71
2023/07/18 07:52:23;;;;;;;;;;;;;;;19.77;30.40;96041.94;4997508;28;19922;-71
2023/07/18 07:54:48;;;;;;;;;;;;;;;20.01;30.05;96032.09;5006703;28;19965;-71
2023/07/18 07:57:14;;;;;;;;;;;;;;;20.05;29.78;96030.59;4998842;28;19936;-70
2023/07/18 07:59:39;;;;;;;;;;;;;;;19.92;30.21;96028.84;5002663;28;19943;-70
2023/07/18 08:02:05;;;;;;;;;;;;;;;20.48;29.82;96020.63;5010696;28;20052;-70
2023/07/18 08:04:30;;;;;;;;;;;;;;;20.36;29.57;96025.16;5002840;28;19928;-71
2023/07/18 08:06:55;;;;;;;;;;;;;;;20.38;29.12;96020.34;5016139;28;19917;-70
2023/07/18 08:09:21;;;;;;;;;;;;;;;20.19;29.94;96022.31;5008055;28;20366;-70
2023/07/18 08:11:46;;;;;;;;;;;;;;;20.59;29.19;96020.84;5000959;28;19918;-70
2023/07/18 08:14:12;;;;;;;;;;;;;;;21.12;28.06;96031.88;5001315;28;19929;-71
2023/07/18 08:16:37;;;;;;;;;;;;;;;19.95;29.37;96025.72;5005908;28;19987;-71
2023/07/18 08:19:02;;;;;;;;;;;;;;;20.41;28.89;96027.16;5006862;28;19948;-71
2023/07/18 08:21:27;;;;;;;;;;;;;;;20.65;28.68;96011.00;5009235;28;20370;-71
2023/07/18 08:23:53;;;;;;;;;;;;;;;20.68;28.82;96013.25;5002129;28;19929;-71
2023/07/18 08:26:18;;;;;;;;;;;;;;;21.05;27.28;96007.63;5006357;28;20603;-71
2023/07/18 08:28:44;;;;;;;;;;;;;;;20.71;28.63;96008.19;4999102;28;19987;-71
2023/07/18 08:31:09;;;;;;;;;;;;;;;19.78;30.02;96006.59;5008678;28;19917;-71
2023/07/18 08:33:34;;;;;;;;;;;;;;;20.90;28.49;96005.38;5005255;28;19932;-71
2023/07/18 08:35:59;;;;;;;;;;;;;;;21.37;27.87;96003.72;5011807;28;20475;-71
2023/07/18 08:38:25;;;;;;;;;;;;;;;21.45;26.70;96018.78;5008243;28;19974;-71
2023/07/18 08:40:50;;;;;;;;;;;;;;;21.92;26.29;96009.72;4999600;28;19933;-71
2023/07/18 08:43:18;;;;;;;;;;;;;;;21.53;27.64;95999.47;5000704;28;19984;-71
2023/07/18 08:45:43;;;;;;;;;;;;;;;22.33;26.96;95993.38;5008477;28;20498;-71
2023/07/18 08:48:08;;;;;;;;;;;;;;;22.65;26.60;96003.72;5001451;28;19963;-71
2023/07/18 08:50:33;;;;;;;;;;;;;;;21.16;27.11;95999.72;5006707;28;20380;-71
2023/07/18 08:52:59;;;;;;;;;;;;;;;21.81;27.11;96002.44;5010146;28;19988;-70
2023/07/18 08:55:26;;;;;;;;;;;;;;;21.93;26.16;96002.44;5001720;28;19917;-71
2023/07/18 08:57:52;;;;;;;;;;;;;;;20.95;27.38;95996.56;5001844;28;19929;-70
2023/07/18 09:00:20;;;;;;;;;;;;;;;21.17;26.75;95995.97;5006300;28;20444;-71
2023/07/18 09:02:48;;;;;;;;;;;;;;;21.22;26.78;95999.63;5001406;28;19921;-71
2023/07/18 09:05:33;;;;;;;;;;;;;;;21.61;25.06;95987.41;5000705;28;20369;-71
2023/07/18 09:07:59;;;;;;;;;;;;;;;18.38;30.57;95989.72;5001132;28;19921;-71
2023/07/18 09:10:24;;;;;;;;;;;;;;;18.72;29.94;95988.63;5014476;28;19917;-71
2023/07/18 09:12:49;;;;;;;;;;;;;;;18.91;30.21;95986.81;5006989;28;20607;-71
2023/07/18 09:15:19;;;;;;;;;;;;;;;19.43;30.25;95972.97;5003470;28;20016;-71
2023/07/18 09:17:48;;;;;;;;;;;;;;;20.01;28.75;95967.25;5012677;28;19925;-71
2023/07/18 09:20:16;;;;;;;;;;;;;;;19.99;29.04;95963.97;5003669;28;19917;-71
2023/07/18 09:22:41;;;;;;;;;;;;;;;21.52;26.91;95959.91;5002161;28;19929;-71
2023/07/18 09:25:06;;;;;;;;;;;;;;;21.71;26.00;95941.56;5001062;28;19926;-71
2023/07/18 09:27:32;;;;;;;;;;;;;;;22.49;25.21;95945.63;4991780;28;19922;-71
2023/07/18 09:29:57;;;;;;;;;;;;;;;22.85;24.29;95941.84;5003539;28;19925;-71
2023/07/18 09:32:23;;;;;;;;;;;;;;;22.61;24.88;95939.34;5002699;28;20036;-71
2023/07/18 09:34:52;;;;;;;;;;;;;;;21.69;25.98;95946.41;5002535;28;19933;-70
2023/07/18 09:37:17;;;;;;;;;;;;;;;20.86;28.01;95942.81;5009686;28;19917;-71
2023/07/18 09:39:42;;;;;;;;;;;;;;;21.60;26.73;95942.44;5001763;28;19997;-71
2023/07/18 09:42:07;;;;;;;;;;;;;;;22.02;25.47;95935.91;4997635;28;20624;-70
2023/07/18 09:44:33;;;;;;;;;;;;;;;22.54;26.07;95928.66;5002535;28;20079;-71
2023/07/18 09:46:58;;;;;;;;;;;;;;;22.99;24.34;95926.84;5007043;28;20322;-71
2023/07/18 09:49:23;;;;;;;;;;;;;;;23.11;23.84;95925.91;4997422;28;19929;-70
2023/07/18 09:51:58;;;;;;;;;;;;;;;23.50;24.14;95933.19;5000793;28;19913;-72
2023/07/18 09:54:23;;;;;;;;;;;;;;;23.92;22.49;95927.16;5003882;28;20328;-71
2023/07/18 09:56:48;;;;;;;;;;;;;;;22.61;23.69;95936.63;5000279;28;19983;-71
2023/07/18 09:59:13;;;;;;;;;;;;;;;19.63;28.18;95927.88;5004541;28;20368;-71
2023/07/18 10:01:39;;;;;;;;;;;;;;;21.23;27.18;95936.28;5006200;28;20310;-70
2023/07/18 10:04:04;;;;;;;;;;;;;;;21.54;24.27;95943.41;5010000;28;19925;-70
2023/07/18 10:06:29;;;;;;;;;;;;;;;21.99;24.11;95944.56;4999518;28;19922;-71
2023/07/18 10:08:55;;;;;;;;;;;;;;;22.97;23.87;95941.75;4999877;28;19921;-71
2023/07/18 10:11:20;;;;;;;;;;;;;;;22.81;23.52;95943.41;5001259;28;19953;-70
2023/07/18 10:13:54;;;;;;;;;;;;;;;23.06;23.70;95937.53;5000127;28;19960;-71
2023/07/18 10:16:20;;;;;;;;;;;;;;;23.55;22.31;95925.91;4997809;28;20354;-75
2023/07/18 10:18:46;;;;;;;;;;;;;;;23.50;22.42;95935.91;5000684;28;19936;-73
2023/07/18 10:21:12;;;;;;;;;;;;;;;23.33;23.04;95942.25;5002136;28;19921;-75
2023/07/18 10:23:41;;;;;;;;;;;;;;;23.66;23.14;95940.44;5001858;28;19933;-75
2023/07/18 10:26:07;;;;;;;;;;;;;;;22.45;22.96;95957.22;4993872;28;20020;-75
2023/07/18 10:28:50;;;;;;;;;;;;;;;23.26;22.74;95953.31;5000302;28;20039;-74
2023/07/18 10:31:33;;;;;;;;;;;;;;;22.96;23.09;95956.38;4997023;28;19921;-75
2023/07/18 10:34:14;;;;;;;;;;;;;;;23.35;22.77;95967.25;4999134;28;19921;-74
2023/07/18 10:36:40;;;;;;;;;;;;;;;20.57;25.97;95977.81;4999387;28;19984;-75
2023/07/18 10:39:09;;;;;;;;;;;;;;;22.41;24.59;95978.59;5007057;28;19917;-74
2023/07/18 10:41:35;;;;;;;;;;;;;;;21.83;25.32;95974.06;5011452;28;20543;-75
2023/07/18 10:44:00;;;;;;;;;;;;;;;21.51;24.64;95979.91;4999277;28;19928;-75
2023/07/18 10:46:36;;;;;;;;;;;;;;;21.40;25.25;95978.88;4999546;28;19932;-75
2023/07/18 10:49:01;;;;;;;;;;;;;;;21.34;25.72;95969.00;5007485;28;19920;-75
2023/07/18 10:51:28;;;;;;;;;;;;;;;21.93;25.04;95934.66;5000127;28;19972;-75
2023/07/18 10:53:54;;;;;;;;;;;;;;;21.45;24.89;95927.53;5002335;28;20351;-75
2023/07/18 10:56:21;;;;;;;;;;;;;;;22.22;24.42;95921.88;5005277;28;19968;-74
2023/07/18 10:58:46;;;;;;;;;;;;;;;22.37;24.21;95910.44;5004200;28;19920;-75
2023/07/18 11:01:12;;;;;;;;;;;;;;;22.64;25.03;95892.72;4997664;28;19933;-75
2023/07/18 11:03:39;;;;;;;;;;;;;;;22.49;24.33;95891.41;5006284;28;20464;-76
2023/07/18 11:06:04;;;;;;;;;;;;;;;22.48;24.09;95887.03;5001082;28;19922;-74
2023/07/18 11:08:30;;;;;;;;;;;;;;;22.63;23.84;95902.75;5005305;28;19924;-74
2023/07/18 11:10:57;;;;;;;;;;;;;;;22.52;25.05;95881.94;5000689;28;19947;-74
2023/07/18 11:13:43;;;;;;;;;;;;;;;22.76;24.87;95879.03;5018452;28;19929;-74
2023/07/18 11:16:09;;;;;;;;;;;;;;;23.04;24.26;95869.06;5010512;28;19925;-74
2023/07/18 11:18:38;;;;;;;;;;;;;;;23.51;23.74;95864.19;5000393;28;19925;-73
2023/07/18 11:21:03;;;;;;;;;;;;;;;23.79;22.80;95865.03;5004061;28;19988;-74
2023/07/18 11:23:29;;;;;;;;;;;;;;;24.18;21.70;95880.31;5008575;28;19921;-74
2023/07/18 11:25:55;;;;;;;;;;;;;;;23.92;21.99;95875.50;4997156;28;20242;-73
2023/07/18 11:28:20;;;;;;;;;;;;;;;23.19;23.11;95868.47;4998930;28;20024;-74
2023/07/18 11:30:45;;;;;;;;;;;;;;;23.40;22.91;95861.38;5008014;28;19935;-79
2023/07/18 11:33:11;;;;;;;;;;;;;;;23.78;21.63;95855.25;5004266;28;19955;-79
2023/07/18 11:35:37;;;;;;;;;;;;;;;23.94;21.67;95854.28;5019709;28;20105;-81
2023/07/18 11:38:02;;;;;;;;;;;;;;;23.58;21.04;95855.88;5011446;28;20708;-80
2023/07/18 11:40:29;;;;;;;;;;;;;;;24.02;21.79;95869.31;5005941;28;20019;-81
2023/07/18 11:42:56;;;;;;;;;;;;;;;21.44;23.25;95869.03;5013672;28;20364;-80
2023/07/18 11:45:28;;;;;;;;;;;;;;;23.40;21.27;95872.25;5009026;28;19918;-80
2023/07/18 11:47:53;;;;;;;;;;;;;;;23.73;21.61;95866.06;5022002;28;19924;-80
2023/07/18 11:50:19;;;;;;;;;;;;;;;24.63;20.08;95869.22;5019351;28;19929;-81
2023/07/18 11:52:48;;;;;;;;;;;;;;;24.84;20.21;95862.81;5017330;28;19979;-81
2023/07/18 11:55:14;;;;;;;;;;;;;;;24.91;20.69;95862.59;5006202;28;19925;-81
2023/07/18 11:57:40;;;;;;;;;;;;;;;25.42;19.85;95855.69;5013172;28;20154;-80
2023/07/18 12:00:06;;;;;;;;;;;;;;;25.26;19.48;95863.03;5006269;28;20024;-80
2023/07/18 12:02:32;;;;;;;;;;;;;;;22.61;22.15;95861.47;5016906;28;19923;-80
2023/07/18 12:04:57;;;;;;;;;;;;;;;22.87;21.79;95850.13;5012475;28;20008;-79
2023/07/18 12:07:23;;;;;;;;;;;;;;;22.34;22.61;95854.03;5011472;28;20338;-79
2023/07/18 12:09:48;;;;;;;;;;;;;;;23.02;21.93;95853.03;5008211;28;19921;-80
2023/07/18 12:12:14;;;;;;;;;;;;;;;23.20;21.12;95848.41;5003217;28;20016;-80
2023/07/18 12:14:41;;;;;;;;;;;;;;;23.97;20.85;95838.56;5003619;28;19925;-80
2023/07/18 12:17:06;;;;;;;;;;;;;;;24.80;21.19;95812.72;5010182;28;19921;-80
2023/07/18 12:19:31;;;;;;;;;;;;;;;25.32;17.96;95793.81;5004265;28;19925;-81
2023/07/18 12:21:56;;;;;;;;;;;;;;;25.33;18.38;95791.94;5004470;28;19922;-81
2023/07/18 12:24:22;;;;;;;;;;;;;;;25.26;18.89;95796.81;4993224;28;20064;-81
2023/07/18 12:26:47;;;;;;;;;;;;;;;24.15;19.80;95805.53;5004572;28;20359;-81
2023/07/18 12:29:16;;;;;;;;;;;;;;;24.59;19.42;95800.91;5001179;28;19948;-81
2023/07/18 12:31:46;;;;;;;;;;;;;;;24.80;19.21;95796.38;5006639;28;19926;-80
2023/07/18 12:34:12;;;;;;;;;;;;;;;25.39;18.75;95782.66;5006507;28;19924;-80
2023/07/18 12:36:38;;;;;;;;;;;;;;;25.08;19.24;95788.03;5023280;28;19921;-80
2023/07/18 12:39:03;;;;;;;;;;;;;;;24.43;20.14;95780.97;5008038;28;20008;-80
2023/07/18 12:41:28;;;;;;;;;;;;;;;23.32;20.87;95783.09;5003424;28;20087;-81
2023/07/18 12:43:54;;;;;;;;;;;;;;;23.73;20.91;95773.66;5012646;28;19917;-82